createdAt,value
2022-12-03T00:00:19.641Z,97068.66
2022-12-03T00:03:07.495Z,97069.27
2022-12-03T00:05:35.347Z,97074.83
2022-12-03T00:08:04.198Z,97081.20
2022-12-03T00:10:32.238Z,97081.77
2022-12-03T00:12:59.982Z,97083.61
2022-12-03T00:15:27.897Z,97087.67
2022-12-03T00:17:55.723Z,97086.92
2022-12-03T00:20:25.257Z,97086.20
2022-12-03T00:22:53.084Z,97088.31
2022-12-03T00:25:21.052Z,97095.75
2022-12-03T00:27:48.821Z,97100.56
2022-12-03T00:30:16.892Z,97096.17
2022-12-03T00:32:44.738Z,97100.56
2022-12-03T00:35:12.624Z,97104.38
2022-12-03T00:37:40.402Z,97104.94
2022-12-03T00:40:08.889Z,97106.41
2022-12-03T00:42:36.710Z,97106.56
2022-12-03T00:45:06.058Z,97107.98
2022-12-03T00:47:34.217Z,97109.53
2022-12-03T00:50:01.984Z,97110.13
2022-12-03T00:52:29.846Z,97110.92
2022-12-03T00:54:57.615Z,97110.29
2022-12-03T00:57:25.376Z,97110.79
2022-12-03T00:59:53.248Z,97110.25
2022-12-03T01:02:21.622Z,97116.30
2022-12-03T01:04:49.538Z,97116.55
2022-12-03T01:07:17.329Z,97114.97
2022-12-03T01:09:45.129Z,97114.16
2022-12-03T01:12:12.991Z,97111.95
2022-12-03T01:14:40.873Z,97112.11
2022-12-03T01:17:08.930Z,97113.50
2022-12-03T01:19:37.113Z,97114.59
2022-12-03T01:22:04.979Z,97110.98
2022-12-03T01:24:33.132Z,97110.58
2022-12-03T01:27:01.024Z,97103.67
2022-12-03T01:29:28.714Z,97103.52
2022-12-03T01:32:10.780Z,97104.25
2022-12-03T01:34:38.523Z,97101.36
2022-12-03T01:37:06.211Z,97098.73
2022-12-03T01:39:34.033Z,97102.15
2022-12-03T01:42:03.204Z,97105.77
2022-12-03T01:44:34.686Z,97106.30
2022-12-03T01:47:06.361Z,97106.45
2022-12-03T01:49:45.665Z,97107.45
2022-12-03T01:52:17.172Z,97105.96
2022-12-03T01:54:50.208Z,97106.22
2022-12-03T01:57:24.634Z,97105.30
2022-12-03T01:59:53.953Z,97099.46
2022-12-03T02:02:25.054Z,97098.95
2022-12-03T02:04:54.212Z,97101.98
2022-12-03T02:07:34.711Z,97098.14
2022-12-03T02:10:04.275Z,97096.34
2022-12-03T02:12:36.562Z,97095.25
2022-12-03T02:15:06.301Z,97093.57
2022-12-03T02:17:34.804Z,97089.70
2022-12-03T02:20:08.903Z,97087.09
2022-12-03T02:22:50.289Z,97087.33
2022-12-03T02:25:20.946Z,97088.52
2022-12-03T02:27:49.713Z,97095.48
2022-12-03T02:30:20.822Z,97099.06
2022-12-03T02:32:49.670Z,97095.08
2022-12-03T02:35:21.906Z,97097.13
2022-12-03T02:37:54.374Z,97096.47
2022-12-03T02:40:25.825Z,97099.10
2022-12-03T02:42:57.036Z,97103.14
2022-12-03T02:45:28.699Z,97106.92
2022-12-03T02:48:01.360Z,97106.07
2022-12-03T02:50:33.873Z,97106.89
2022-12-03T02:53:05.935Z,97108.67
2022-12-03T02:55:37.404Z,97108.53
2022-12-03T02:58:06.458Z,97105.98
2022-12-03T03:00:36.057Z,97107.08
2022-12-03T03:03:06.211Z,97105.99
2022-12-03T03:05:37.823Z,97108.61
2022-12-03T03:08:07.976Z,97109.11
2022-12-03T03:10:38.174Z,97108.85
2022-12-03T03:13:10.911Z,97112.02
2022-12-03T03:15:40.692Z,97114.47
2022-12-03T03:18:10.474Z,97113.77
2022-12-03T03:20:39.176Z,97112.11
2022-12-03T03:23:15.877Z,97110.35
2022-12-03T03:25:48.668Z,97111.02
2022-12-03T03:28:16.793Z,97112.94
2022-12-03T03:30:45.215Z,97112.55
2022-12-03T03:33:15.501Z,97110.88
2022-12-03T03:35:45.243Z,97111.30
2022-12-03T03:38:13.526Z,97110.23
2022-12-03T03:40:42.231Z,97112.96
2022-12-03T03:43:10.906Z,97112.75
2022-12-03T03:45:38.919Z,97113.86
2022-12-03T03:48:07.680Z,97120.98
2022-12-03T03:50:36.039Z,97122.11
2022-12-03T03:53:04.783Z,97122.36
2022-12-03T03:55:33.681Z,97122.40
2022-12-03T03:58:01.792Z,97120.23
2022-12-03T04:00:30.996Z,97116.27
2022-12-03T04:02:58.859Z,97114.44
2022-12-03T04:05:27.751Z,97120.41
2022-12-03T04:07:55.603Z,97124.05
2022-12-03T04:10:41.893Z,97120.36
2022-12-03T04:13:09.506Z,97119.34
2022-12-03T04:15:37.414Z,97125.95
2022-12-03T04:18:22.411Z,97126.12
2022-12-03T04:20:50.523Z,97130.52
2022-12-03T04:23:18.263Z,97130.27
2022-12-03T04:26:02.914Z,97129.44
2022-12-03T04:28:42.956Z,97134.00
2022-12-03T04:31:23.305Z,97129.20
2022-12-03T04:34:03.337Z,97129.60
2022-12-03T04:36:31.197Z,97126.04
2022-12-03T04:38:59.009Z,97124.77
2022-12-03T04:41:26.814Z,97127.20
2022-12-03T04:44:13.974Z,97130.83
2022-12-03T04:46:41.766Z,97136.41
2022-12-03T04:49:09.487Z,97137.36
2022-12-03T04:51:37.300Z,97134.40
2022-12-03T04:54:05.236Z,97139.61
2022-12-03T04:56:38.160Z,97135.85
2022-12-03T04:59:08.087Z,97136.82
2022-12-03T05:01:39.141Z,97136.34
2022-12-03T05:04:07.295Z,97136.67
2022-12-03T05:06:35.997Z,97136.29
2022-12-03T05:09:04.011Z,97138.47
2022-12-03T05:11:31.879Z,97133.50
2022-12-03T05:13:59.667Z,97137.22
2022-12-03T05:16:29.818Z,97140.40
2022-12-03T05:18:57.868Z,97147.20
2022-12-03T05:21:25.744Z,97144.11
2022-12-03T05:23:53.713Z,97145.03
2022-12-03T05:26:21.762Z,97144.41
2022-12-03T05:28:50.068Z,97147.95
2022-12-03T05:31:18.109Z,97148.30
2022-12-03T05:33:45.990Z,97150.10
2022-12-03T05:36:13.761Z,97150.20
2022-12-03T05:38:41.620Z,97151.06
2022-12-03T05:41:27.411Z,97153.25
2022-12-03T05:43:55.456Z,97152.82
2022-12-03T05:46:23.322Z,97151.50
2022-12-03T05:48:51.134Z,97152.05
2022-12-03T05:51:18.976Z,97154.48
2022-12-03T05:53:46.781Z,97156.79
2022-12-03T05:56:14.501Z,97162.06
2022-12-03T05:58:42.372Z,97164.83
2022-12-03T06:01:10.243Z,97164.39
2022-12-03T06:03:38.113Z,97164.47
2022-12-03T06:06:06.292Z,97162.15
2022-12-03T06:08:34.038Z,97161.33
2022-12-03T06:11:01.753Z,97163.79
2022-12-03T06:13:29.895Z,97166.04
2022-12-03T06:15:57.726Z,97168.52
2022-12-03T06:18:25.486Z,97170.92
2022-12-03T06:20:53.397Z,97167.02
2022-12-03T06:23:21.098Z,97165.85
2022-12-03T06:25:50.542Z,97166.45
2022-12-03T06:28:18.493Z,97171.23
2022-12-03T06:30:46.242Z,97174.16
2022-12-03T06:33:14.242Z,97176.95
2022-12-03T06:35:42.214Z,97179.95
2022-12-03T06:38:10.089Z,97181.21
2022-12-03T06:40:38.280Z,97183.32
2022-12-03T06:43:06.156Z,97183.39
2022-12-03T06:45:33.928Z,97181.27
2022-12-03T06:48:02.040Z,97181.62
2022-12-03T06:50:30.188Z,97180.36
2022-12-03T06:52:59.550Z,97185.13
2022-12-03T06:55:27.305Z,97186.82
2022-12-03T06:57:55.057Z,97182.10
2022-12-03T07:00:23.148Z,97181.27
2022-12-03T07:02:52.013Z,97181.85
2022-12-03T07:05:20.091Z,97184.40
2022-12-03T07:07:52.253Z,97181.20
2022-12-03T07:10:20.244Z,97179.97
2022-12-03T07:12:48.006Z,97181.80
2022-12-03T07:15:15.975Z,97180.80
2022-12-03T07:17:43.896Z,97183.41
2022-12-03T07:20:12.578Z,97174.11
2022-12-03T07:22:40.271Z,97175.18
2022-12-03T07:25:09.054Z,97173.75
2022-12-03T07:27:39.913Z,97179.56
2022-12-03T07:30:08.620Z,97180.72
2022-12-03T07:32:36.440Z,97182.02
2022-12-03T07:35:07.168Z,97182.55
2022-12-03T07:37:35.261Z,97184.34
2022-12-03T07:40:04.650Z,97182.08
2022-12-03T07:42:33.086Z,97187.33
2022-12-03T07:45:00.796Z,97190.34
2022-12-03T07:47:28.570Z,97189.84
2022-12-03T07:49:56.269Z,97187.00
2022-12-03T07:52:24.006Z,97189.44
2022-12-03T07:54:52.195Z,97194.42
2022-12-03T07:57:20.224Z,97191.05
2022-12-03T07:59:51.363Z,97194.45
2022-12-03T08:02:21.595Z,97194.40
2022-12-03T08:04:50.364Z,97194.77
2022-12-03T08:07:18.509Z,97188.75
2022-12-03T08:09:46.609Z,97184.56
2022-12-03T08:12:18.125Z,97183.88
2022-12-03T08:14:45.804Z,97179.91
2022-12-03T08:17:14.757Z,97179.56
2022-12-03T08:19:45.919Z,97180.77
2022-12-03T08:22:15.664Z,97183.53
2022-12-03T08:24:43.810Z,97182.44
2022-12-03T08:27:19.749Z,97187.37
2022-12-03T08:29:48.053Z,97188.81
2022-12-03T08:32:16.392Z,97189.80
2022-12-03T08:34:44.746Z,97192.61
2022-12-03T08:37:18.346Z,97196.25
2022-12-03T08:39:49.229Z,97193.95
2022-12-03T08:42:52.424Z,97196.23
2022-12-03T08:45:40.768Z,97194.77
2022-12-03T08:48:20.558Z,97196.36
2022-12-03T08:50:48.315Z,97195.56
2022-12-03T08:53:37.313Z,97197.67
2022-12-03T08:56:19.820Z,97196.38
2022-12-03T08:58:53.027Z,97198.10
2022-12-03T09:01:31.302Z,97197.56
2022-12-03T09:04:16.224Z,97198.34
2022-12-03T09:06:44.121Z,97194.98
2022-12-03T09:09:11.859Z,97189.86
2022-12-03T09:11:40.284Z,97191.15
2022-12-03T09:14:08.283Z,97192.11
2022-12-03T09:16:36.178Z,97194.65
2022-12-03T09:19:04.707Z,97194.62
2022-12-03T09:21:33.096Z,97190.25
2022-12-03T09:24:00.829Z,97187.80
2022-12-03T09:26:29.761Z,97184.63
2022-12-03T09:28:57.512Z,97185.29
2022-12-03T09:31:25.622Z,97183.73
2022-12-03T09:33:54.124Z,97181.41
2022-12-03T09:36:21.937Z,97176.89
2022-12-03T09:38:50.213Z,97180.05
2022-12-03T09:41:18.105Z,97176.33
2022-12-03T09:46:36.357Z,97175.14
2022-12-03T09:49:12.326Z,97177.85
2022-12-03T09:51:45.490Z,97176.29
2022-12-03T09:54:23.982Z,97174.54
2022-12-03T09:56:53.821Z,97174.81
2022-12-03T09:59:24.241Z,97177.98
2022-12-03T10:01:53.309Z,97179.80
2022-12-03T10:04:21.418Z,97174.91
2022-12-03T10:06:49.920Z,97170.56
2022-12-03T10:09:25.171Z,97164.70
2022-12-03T10:11:53.073Z,97166.44
2022-12-03T10:14:21.076Z,97166.17
2022-12-03T10:16:49.327Z,97164.67
2022-12-03T10:19:24.375Z,97162.17
2022-12-03T10:21:52.156Z,97162.46
2022-12-03T10:24:23.969Z,97158.01
2022-12-03T10:26:55.092Z,97162.54
2022-12-03T10:29:32.921Z,97164.39
2022-12-03T10:32:06.071Z,97163.83
2022-12-03T10:34:37.507Z,97165.96
2022-12-03T10:37:11.837Z,97163.82
2022-12-03T10:39:58.501Z,97163.14
2022-12-03T10:42:30.034Z,97168.23
2022-12-03T10:45:19.174Z,97168.58
2022-12-03T10:48:05.981Z,97162.63
2022-12-03T10:50:34.769Z,97158.71
2022-12-03T10:53:03.173Z,97161.41
2022-12-03T10:55:39.842Z,97158.85
2022-12-03T10:58:24.746Z,97160.70
2022-12-03T11:00:55.106Z,97154.54
2022-12-03T11:03:26.811Z,97151.20
2022-12-03T11:05:56.280Z,97151.48
2022-12-03T11:08:27.791Z,97149.22
2022-12-03T11:11:00.768Z,97145.70
2022-12-03T11:13:50.213Z,97141.38
2022-12-03T11:16:49.071Z,97139.13
2022-12-03T11:19:37.357Z,97138.34
2022-12-03T11:22:26.690Z,97141.23
2022-12-03T11:25:31.295Z,97134.14
2022-12-03T11:28:31.088Z,97134.30
2022-12-03T11:31:02.778Z,97134.63
2022-12-03T11:33:33.934Z,97134.59
2022-12-03T11:36:10.202Z,97138.79
2022-12-03T11:38:52.405Z,97137.13
2022-12-03T11:41:29.074Z,97133.42
2022-12-03T11:43:59.492Z,97136.63
2022-12-03T11:46:43.594Z,97137.22
2022-12-03T11:49:38.625Z,97136.83
2022-12-03T11:52:23.645Z,97136.66
2022-12-03T11:54:56.398Z,97137.70
2022-12-03T11:57:28.666Z,97138.11
2022-12-03T11:59:59.033Z,97139.70
2022-12-03T12:02:26.885Z,97144.05
2022-12-03T12:04:54.842Z,97141.11
2022-12-03T12:07:42.625Z,97141.95
2022-12-03T12:10:11.520Z,97136.73
2022-12-03T12:12:51.133Z,97142.63
2022-12-03T12:15:35.230Z,97138.09
2022-12-03T12:18:33.349Z,97139.59
2022-12-03T12:21:33.127Z,97136.59
2022-12-03T12:24:31.001Z,97134.42
2022-12-03T12:27:02.915Z,97135.19
2022-12-03T12:29:31.204Z,97133.82
2022-12-03T12:32:12.074Z,97134.30
2022-12-03T12:34:41.930Z,97136.24
2022-12-03T12:37:28.345Z,97139.04
2022-12-03T12:39:57.330Z,97136.55
2022-12-03T12:42:31.557Z,97135.90
2022-12-03T12:45:09.049Z,97139.52
2022-12-03T12:47:37.594Z,97140.66
2022-12-03T12:50:10.716Z,97140.86
2022-12-03T12:52:48.702Z,97137.34
2022-12-03T12:55:17.405Z,97140.80
2022-12-03T12:57:45.189Z,97140.89
2022-12-03T13:00:18.074Z,97142.90
2022-12-03T13:02:51.573Z,97140.36
2022-12-03T13:05:22.050Z,97145.33
2022-12-03T13:07:52.860Z,97143.87
2022-12-03T13:10:32.563Z,97140.31
2022-12-03T13:13:16.294Z,97141.67
2022-12-03T13:15:57.423Z,97143.15
2022-12-03T13:18:33.223Z,97140.05
2022-12-03T13:21:33.304Z,97141.00
2022-12-03T13:24:01.695Z,97144.30
2022-12-03T13:26:45.439Z,97143.72
2022-12-03T13:29:16.914Z,97145.98
2022-12-03T13:31:59.846Z,97145.52
2022-12-03T13:34:33.830Z,97145.48
2022-12-03T13:37:02.757Z,97144.93
2022-12-03T13:39:35.033Z,97142.30
2022-12-03T13:42:46.428Z,97146.48
2022-12-03T13:45:31.405Z,97151.14
2022-12-03T13:48:02.858Z,97148.95
2022-12-03T13:50:38.049Z,97147.54
2022-12-03T13:53:22.387Z,97149.52
2022-12-03T13:55:54.306Z,97148.98
2022-12-03T13:58:22.097Z,97146.84
2022-12-03T14:00:50.018Z,97145.99
2022-12-03T14:03:17.862Z,97156.64
2022-12-03T14:05:45.706Z,97160.45
2022-12-03T14:08:13.620Z,97162.85
2022-12-03T14:10:41.516Z,97160.83
2022-12-03T14:13:10.036Z,97164.60
2022-12-03T14:15:38.657Z,97165.45
2022-12-03T14:18:06.701Z,97169.47
2022-12-03T14:20:35.116Z,97171.34
2022-12-03T14:23:02.936Z,97174.54
2022-12-03T14:25:30.742Z,97173.68
2022-12-03T14:28:00.647Z,97173.05
2022-12-03T14:30:28.697Z,97174.92
2022-12-03T14:32:56.402Z,97172.95
2022-12-03T14:35:24.268Z,97171.85
2022-12-03T14:37:52.097Z,97171.08
2022-12-03T14:40:22.016Z,97174.81
2022-12-03T14:42:50.335Z,97175.27
2022-12-03T14:45:18.127Z,97172.16
2022-12-03T14:47:45.872Z,97171.73
2022-12-03T14:50:14.571Z,97174.20
2022-12-03T14:52:43.393Z,97173.80
2022-12-03T14:55:11.113Z,97179.48
2022-12-03T14:57:38.926Z,97182.09
2022-12-03T15:00:07.551Z,97185.35
2022-12-03T15:02:35.669Z,97186.16
2022-12-03T15:05:03.820Z,97188.52
2022-12-03T15:07:32.092Z,97195.11
2022-12-03T15:10:00.846Z,97192.80
2022-12-03T15:12:28.581Z,97196.66
2022-12-03T15:14:56.308Z,97193.57
2022-12-03T15:17:31.267Z,97190.53
2022-12-03T15:19:59.698Z,97190.50
2022-12-03T15:22:27.418Z,97196.08
2022-12-03T15:24:55.167Z,97195.34
2022-12-03T15:27:23.451Z,97199.33
2022-12-03T15:29:51.570Z,97198.48
2022-12-03T15:32:19.709Z,97199.97
2022-12-03T15:34:47.595Z,97203.01
2022-12-03T15:37:15.337Z,97199.91
2022-12-03T15:39:48.483Z,97199.04
2022-12-03T15:42:16.784Z,97198.27
2022-12-03T15:44:46.872Z,97200.23
2022-12-03T15:47:14.555Z,97205.27
2022-12-03T15:49:42.401Z,97205.13
2022-12-03T15:52:10.100Z,97208.58
2022-12-03T15:54:37.762Z,97207.69
2022-12-03T15:57:05.552Z,97212.81
2022-12-03T15:59:33.221Z,97212.03
2022-12-03T16:02:01.013Z,97214.58
2022-12-03T16:04:28.988Z,97215.35
2022-12-03T16:06:56.772Z,97217.50
2022-12-03T16:09:27.458Z,97217.37
2022-12-03T16:11:55.626Z,97217.16
2022-12-03T16:14:23.486Z,97213.26
2022-12-03T16:16:51.940Z,97211.45
2022-12-03T16:19:19.778Z,97208.39
2022-12-03T16:21:47.466Z,97210.20
2022-12-03T16:24:15.257Z,97210.70
2022-12-03T16:26:43.071Z,97204.69
2022-12-03T16:29:10.687Z,97204.92
2022-12-03T16:31:38.543Z,97200.84
2022-12-03T16:34:06.326Z,97204.31
2022-12-03T16:36:34.635Z,97205.87
2022-12-03T16:39:02.414Z,97208.42
2022-12-03T16:41:30.326Z,97211.41
2022-12-03T16:43:58.170Z,97211.80
2022-12-03T16:46:26.595Z,97208.77
2022-12-03T16:48:57.868Z,97209.57
2022-12-03T16:51:26.821Z,97211.59
2022-12-03T16:53:55.014Z,97216.52
2022-12-03T16:56:22.789Z,97216.13
2022-12-03T16:58:50.583Z,97220.10
2022-12-03T17:01:18.416Z,97223.09
2022-12-03T17:03:46.351Z,97228.75
2022-12-03T17:06:14.061Z,97222.45
2022-12-03T17:08:47.380Z,97222.98
2022-12-03T17:11:17.440Z,97226.38
2022-12-03T17:13:45.137Z,97225.77
2022-12-03T17:16:13.057Z,97224.45
2022-12-03T17:18:40.968Z,97224.38
2022-12-03T17:21:08.763Z,97225.84
2022-12-03T17:23:38.113Z,97229.05
2022-12-03T17:26:07.226Z,97227.43
2022-12-03T17:28:35.533Z,97230.05
2022-12-03T17:31:03.385Z,97231.30
2022-12-03T17:33:31.693Z,97229.69
2022-12-03T17:35:59.467Z,97230.20
2022-12-03T17:38:27.272Z,97226.90
2022-12-03T17:40:55.595Z,97226.55
2022-12-03T17:43:23.520Z,97230.95
2022-12-03T17:45:51.843Z,97232.64
2022-12-03T17:48:19.722Z,97237.52
2022-12-03T17:50:48.580Z,97237.21
2022-12-03T17:53:16.312Z,97239.10
2022-12-03T17:55:45.173Z,97237.21
2022-12-03T17:58:13.577Z,97234.88
2022-12-03T18:00:41.704Z,97233.80
2022-12-03T18:03:09.645Z,97233.93
2022-12-03T18:05:37.544Z,97232.76
2022-12-03T18:08:06.141Z,97229.70
2022-12-03T18:10:33.950Z,97228.84
2022-12-03T18:13:02.420Z,97231.70
2022-12-03T18:15:31.951Z,97231.55
2022-12-03T18:17:59.856Z,97234.30
2022-12-03T18:20:27.724Z,97230.59
2022-12-03T18:22:57.109Z,97232.35
2022-12-03T18:25:25.806Z,97230.92
2022-12-03T18:27:53.919Z,97231.21
2022-12-03T18:30:22.078Z,97229.31
2022-12-03T18:32:50.643Z,97226.89
2022-12-03T18:35:18.455Z,97227.94
2022-12-03T18:37:46.469Z,97228.81
2022-12-03T18:40:20.108Z,97234.65
2022-12-03T18:42:48.564Z,97231.61
2022-12-03T18:45:16.847Z,97237.21
2022-12-03T18:47:45.214Z,97235.66
2022-12-03T18:50:13.497Z,97235.80
2022-12-03T18:52:41.289Z,97235.04
2022-12-03T18:55:17.648Z,97235.36
2022-12-03T18:57:46.018Z,97231.69
2022-12-03T19:00:14.899Z,97235.91
2022-12-03T19:03:02.254Z,97239.52
2022-12-03T19:05:33.173Z,97232.58
2022-12-03T19:08:02.009Z,97229.38
2022-12-03T19:10:29.915Z,97229.02
2022-12-03T19:12:57.679Z,97226.41
2022-12-03T19:15:26.439Z,97224.86
2022-12-03T19:17:54.401Z,97229.20
2022-12-03T19:20:22.306Z,97227.95
2022-12-03T19:22:50.180Z,97224.73
2022-12-03T19:25:17.997Z,97222.77
2022-12-03T19:27:46.597Z,97220.38
2022-12-03T19:30:14.515Z,97222.28
2022-12-03T19:32:42.490Z,97225.05
2022-12-03T19:35:11.451Z,97221.44
2022-12-03T19:37:39.879Z,97223.25
2022-12-03T19:40:10.124Z,97227.48
2022-12-03T19:42:38.088Z,97231.33
2022-12-03T19:45:06.814Z,97232.91
2022-12-03T19:47:35.784Z,97231.91
2022-12-03T19:50:05.504Z,97234.48
2022-12-03T19:52:36.495Z,97233.86
2022-12-03T19:55:05.130Z,97235.60
2022-12-03T19:57:33.538Z,97233.34
2022-12-03T20:00:01.402Z,97235.14
2022-12-03T20:02:29.379Z,97235.02
2022-12-03T20:04:57.473Z,97231.83
2022-12-03T20:07:25.221Z,97233.31
2022-12-03T20:09:56.254Z,97232.37
2022-12-03T20:12:24.381Z,97237.02
2022-12-03T20:14:52.569Z,97240.13
2022-12-03T20:17:20.401Z,97240.76
2022-12-03T20:19:48.170Z,97240.91
2022-12-03T20:22:16.160Z,97236.70
2022-12-03T20:24:43.824Z,97230.92
2022-12-03T20:27:11.575Z,97230.30
2022-12-03T20:29:39.668Z,97233.40
2022-12-03T20:32:07.716Z,97232.84
2022-12-03T20:34:37.483Z,97231.30
2022-12-03T20:37:05.312Z,97230.30
2022-12-03T20:39:33.092Z,97235.09
2022-12-03T20:42:00.943Z,97235.62
2022-12-03T20:44:28.899Z,97233.91
2022-12-03T20:46:56.815Z,97236.23
2022-12-03T20:49:24.761Z,97236.47
2022-12-03T20:51:52.571Z,97237.59
2022-12-03T20:54:20.445Z,97238.05
2022-12-03T20:56:50.938Z,97239.88
2022-12-03T20:59:19.716Z,97236.26
2022-12-03T21:01:47.562Z,97232.72
2022-12-03T21:04:16.198Z,97235.89
2022-12-03T21:06:46.119Z,97233.11
2022-12-03T21:09:14.006Z,97237.95
2022-12-03T21:11:42.640Z,97233.67
2022-12-03T21:14:11.437Z,97233.50
2022-12-03T21:17:06.638Z,97235.55
2022-12-03T21:19:27.928Z,97237.40
2022-12-03T21:21:55.714Z,97237.25
2022-12-03T21:24:23.911Z,97241.67
2022-12-03T21:26:51.654Z,97239.67
2022-12-03T21:29:19.457Z,97240.52
2022-12-03T21:31:47.226Z,97241.13
2022-12-03T21:34:15.203Z,97241.12
2022-12-03T21:36:44.080Z,97241.72
2022-12-03T21:39:11.874Z,97242.73
2022-12-03T21:41:39.724Z,97242.02
2022-12-03T21:44:07.509Z,97242.19
2022-12-03T21:47:10.410Z,97244.33
2022-12-03T21:49:23.340Z,97240.70
2022-12-03T21:51:51.077Z,97240.09
2022-12-03T21:54:18.867Z,97241.39
2022-12-03T21:56:46.745Z,97239.57
2022-12-03T21:59:14.744Z,97238.38
2022-12-03T22:02:00.836Z,97238.02
2022-12-03T22:04:39.899Z,97238.11
2022-12-03T22:07:08.987Z,97238.81
2022-12-03T22:09:36.873Z,97239.33
2022-12-03T22:12:04.941Z,97239.10
2022-12-03T22:14:33.545Z,97231.81
2022-12-03T22:17:01.367Z,97229.94
2022-12-03T22:19:29.242Z,97231.11
2022-12-03T22:21:57.034Z,97233.68
2022-12-03T22:24:24.888Z,97233.77
2022-12-03T22:26:54.672Z,97233.64
2022-12-03T22:29:23.015Z,97234.56
2022-12-03T22:31:51.371Z,97233.81
2022-12-03T22:34:21.308Z,97232.76
2022-12-03T22:36:49.468Z,97235.09
2022-12-03T22:39:17.191Z,97233.52
2022-12-03T22:41:45.035Z,97227.77
2022-12-03T22:44:12.984Z,97228.57
2022-12-03T22:46:40.783Z,97226.23
2022-12-03T22:49:09.437Z,97228.88
2022-12-03T22:51:37.333Z,97232.20
2022-12-03T22:54:06.360Z,97230.09
2022-12-03T22:56:34.171Z,97228.64
2022-12-03T22:59:05.113Z,97223.10
2022-12-03T23:01:38.686Z,97226.04
2022-12-03T23:04:09.010Z,97224.70
2022-12-03T23:06:37.984Z,97223.39
2022-12-03T23:09:07.249Z,97215.23
2022-12-03T23:11:35.660Z,97211.71
2022-12-03T23:14:03.769Z,97215.81
2022-12-03T23:16:33.233Z,97216.59
2022-12-03T23:19:02.628Z,97216.67
2022-12-03T23:21:33.999Z,97212.85
2022-12-03T23:24:04.430Z,97210.46
2022-12-03T23:26:36.599Z,97212.69
2022-12-03T23:29:06.018Z,97213.27
2022-12-03T23:31:36.687Z,97209.80
2022-12-03T23:34:05.269Z,97211.09
2022-12-03T23:36:34.110Z,97212.45
2022-12-03T23:39:02.198Z,97207.52
2022-12-03T23:41:29.993Z,97211.36
2022-12-03T23:43:57.926Z,97211.08
2022-12-03T23:46:27.455Z,97207.30
2022-12-03T23:48:58.539Z,97204.08
2022-12-03T23:51:27.577Z,97207.88
2022-12-03T23:53:56.436Z,97206.86
2022-12-03T23:56:27.676Z,97205.56
2022-12-03T23:58:57.138Z,97209.11
